Time;durP1;ratioP1;P1;durP2;ratioP2;P2;SDS_P1;SDS_P2;PMS_P1;PMS_P2;Temp;Humidity;BMP_temperature;BMP_pressure;BME280_temperature;BME280_humidity;BME280_pressure;Samples;Min_cycle;Max_cycle;Signal;HPM_P1;HPM_P2
2021/03/17 00:00:57;;;;;;;6.22;2.10;;;2.30;91.10;;;;;;5002766;28;20442;-67
2021/03/17 00:03:24;;;;;;;11.05;2.13;;;2.30;91.20;;;;;;4997364;28;20092;-69
2021/03/17 00:05:50;;;;;;;7.88;2.50;;;2.30;91.10;;;;;;5002316;28;20026;-67
2021/03/17 00:08:22;;;;;;;7.18;2.10;;;2.30;91.10;;;;;;5000510;28;20510;-67
2021/03/17 00:10:52;;;;;;;7.90;2.33;;;2.30;91.10;;;;;;4999561;28;20034;-67
2021/03/17 00:13:21;;;;;;;4.53;2.22;;;2.30;91.10;;;;;;4999635;28;20022;-68
2021/03/17 00:15:47;;;;;;;8.20;2.42;;;2.30;91.10;;;;;;4998110;28;20053;-67
2021/03/17 00:18:14;;;;;;;11.13;2.45;;;2.20;91.10;;;;;;5004034;28;20494;-67
2021/03/17 00:20:41;;;;;;;9.00;2.50;;;2.20;91.10;;;;;;5000553;28;20030;-66
2021/03/17 00:23:07;;;;;;;10.38;2.10;;;2.10;91.10;;;;;;5001037;28;20026;-67
2021/03/17 00:25:37;;;;;;;10.48;2.17;;;2.10;91.10;;;;;;4995681;28;20026;-68
2021/03/17 00:28:04;;;;;;;9.45;2.38;;;2.00;91.20;;;;;;5001598;28;20493;-67
2021/03/17 00:30:31;;;;;;;12.88;2.75;;;1.90;91.40;;;;;;4997697;28;20574;-66
2021/03/17 00:32:59;;;;;;;6.97;2.45;;;1.80;91.50;;;;;;4999025;28;20049;-67
2021/03/17 00:35:25;;;;;;;8.20;2.40;;;1.80;91.60;;;;;;5001112;28;20029;-69
2021/03/17 00:37:51;;;;;;;8.68;2.47;;;1.70;91.90;;;;;;4998640;28;20080;-67
2021/03/17 00:40:17;;;;;;;7.50;2.22;;;1.70;91.90;;;;;;5003471;28;20029;-66
2021/03/17 00:42:43;;;;;;;9.60;2.47;;;1.60;91.90;;;;;;5001946;28;20030;-69
2021/03/17 00:45:09;;;;;;;5.85;2.38;;;1.60;91.90;;;;;;4999739;28;20671;-67
2021/03/17 00:47:35;;;;;;;4.25;2.13;;;1.60;91.90;;;;;;4996646;28;20026;-67
2021/03/17 00:50:01;;;;;;;6.85;2.22;;;1.60;91.90;;;;;;4999616;28;20029;-69
2021/03/17 00:52:26;;;;;;;10.45;2.35;;;1.60;91.80;;;;;;4994853;28;20041;-68
2021/03/17 00:54:52;;;;;;;7.82;2.08;;;1.60;91.90;;;;;;4997172;28;21389;-69
2021/03/17 00:57:18;;;;;;;9.38;2.75;;;1.50;91.90;;;;;;4999577;28;20038;-67
2021/03/17 00:59:43;;;;;;;9.25;2.47;;;1.40;91.90;;;;;;4999932;28;20040;-67
2021/03/17 01:02:09;;;;;;;6.70;2.35;;;1.40;92.00;;;;;;5000775;28;20044;-67
2021/03/17 01:04:34;;;;;;;7.47;2.05;;;1.30;92.10;;;;;;4995764;28;20023;-69
2021/03/17 01:07:00;;;;;;;10.43;2.25;;;1.30;92.30;;;;;;4998818;28;20031;-67
2021/03/17 01:09:26;;;;;;;12.60;2.22;;;1.30;92.30;;;;;;5006010;28;20160;-69
2021/03/17 01:11:51;;;;;;;10.55;2.72;;;1.30;92.30;;;;;;4993635;28;20031;-66
2021/03/17 01:14:17;;;;;;;6.72;2.03;;;1.20;92.30;;;;;;5001501;28;20126;-67
2021/03/17 01:16:42;;;;;;;7.72;2.50;;;1.20;92.40;;;;;;5001594;28;20578;-68
2021/03/17 01:19:08;;;;;;;6.30;2.50;;;1.20;92.60;;;;;;5000045;28;20041;-67
2021/03/17 01:21:34;;;;;;;6.93;2.10;;;1.20;92.50;;;;;;4994936;28;20482;-68
2021/03/17 01:24:00;;;;;;;14.48;2.53;;;1.20;92.50;;;;;;4996629;28;20080;-69
2021/03/17 01:26:25;;;;;;;8.63;2.00;;;1.20;92.40;;;;;;4983882;28;20018;-67
2021/03/17 01:28:51;;;;;;;10.57;2.25;;;1.10;92.40;;;;;;5000108;28;20450;-67
2021/03/17 01:31:17;;;;;;;7.53;2.20;;;1.10;92.50;;;;;;5003344;28;20036;-70
2021/03/17 01:33:42;;;;;;;11.07;2.42;;;1.10;92.50;;;;;;4999816;28;20031;-67
2021/03/17 01:36:08;;;;;;;7.07;2.20;;;1.10;92.60;;;;;;4996408;28;20031;-67
2021/03/17 01:38:34;;;;;;;8.27;2.00;;;1.10;92.60;;;;;;4999842;28;20080;-68
2021/03/17 01:40:59;;;;;;;8.25;2.67;;;1.10;92.60;;;;;;4994740;28;20100;-68
2021/03/17 01:43:25;;;;;;;12.23;2.63;;;1.10;92.40;;;;;;5001450;28;20088;-69
2021/03/17 01:45:51;;;;;;;11.00;2.40;;;1.10;92.40;;;;;;4998556;28;20333;-68
2021/03/17 01:48:17;;;;;;;12.70;2.60;;;1.00;92.30;;;;;;5001429;28;20113;-68
2021/03/17 01:50:56;;;;;;;10.65;2.60;;;0.90;92.20;;;;;;5002388;28;20573;-68
2021/03/17 01:53:33;;;;;;;9.10;2.67;;;0.90;92.30;;;;;;4998627;28;20112;-68
2021/03/17 01:55:59;;;;;;;7.78;2.30;;;0.90;92.30;;;;;;4996570;28;20022;-68
2021/03/17 01:58:26;;;;;;;10.57;2.58;;;0.90;92.50;;;;;;5000214;28;20379;-67
2021/03/17 02:00:52;;;;;;;6.28;2.22;;;0.90;92.60;;;;;;4997119;28;20375;-68
2021/03/17 02:03:19;;;;;;;9.82;2.22;;;0.90;92.60;;;;;;4998688;28;20049;-70
2021/03/17 02:05:46;;;;;;;14.75;2.10;;;0.90;92.40;;;;;;5000951;28;20040;-68
2021/03/17 02:08:15;;;;;;;5.05;2.15;;;0.90;92.50;;;;;;5003267;28;20109;-69
2021/03/17 02:10:41;;;;;;;9.23;2.45;;;0.90;92.30;;;;;;5001407;28;20039;-69
2021/03/17 02:13:37;;;;;;;15.77;2.28;;;0.90;92.50;;;;;;5003536;28;20028;-67
2021/03/17 02:16:13;;;;;;;7.53;1.92;;;0.90;92.60;;;;;;4999020;28;20029;-67
2021/03/17 02:18:46;;;;;;;9.73;2.40;;;0.90;92.40;;;;;;4998168;28;20513;-68
2021/03/17 02:21:49;;;;;;;7.72;2.40;;;0.90;92.60;;;;;;5004642;28;20473;-67
2021/03/17 02:24:34;;;;;;;7.75;2.38;;;1.00;92.70;;;;;;4999354;28;20513;-68
2021/03/17 02:27:18;;;;;;;8.30;2.10;;;1.00;92.50;;;;;;5003961;28;20041;-68
2021/03/17 02:30:21;;;;;;;7.63;2.00;;;1.10;92.60;;;;;;5002505;28;20109;-69
2021/03/17 02:33:01;;;;;;;8.10;1.75;;;1.10;92.50;;;;;;5002052;28;20551;-68
2021/03/17 02:35:30;;;;;;;11.75;2.50;;;1.10;92.50;;;;;;5000219;28;20055;-67
2021/03/17 02:37:59;;;;;;;8.93;2.40;;;1.10;92.40;;;;;;4996385;28;20089;-71
2021/03/17 02:40:32;;;;;;;7.28;2.03;;;1.20;92.40;;;;;;5002500;28;20470;-68
2021/03/17 02:43:19;;;;;;;8.02;2.25;;;1.20;92.30;;;;;;4994942;28;20081;-68
2021/03/17 02:45:53;;;;;;;4.40;1.92;;;1.20;92.20;;;;;;5001077;28;20117;-69
2021/03/17 02:48:23;;;;;;;8.77;2.08;;;1.20;92.10;;;;;;4997334;28;20092;-69
2021/03/17 02:50:52;;;;;;;5.25;2.30;;;1.30;92.10;;;;;;5000511;28;20037;-70
2021/03/17 02:53:21;;;;;;;11.18;1.70;;;1.30;92.20;;;;;;4999619;28;20026;-68
2021/03/17 02:56:03;;;;;;;10.15;2.20;;;1.40;92.10;;;;;;4999975;28;20118;-68
2021/03/17 02:58:30;;;;;;;7.07;2.10;;;1.40;91.90;;;;;;5000807;28;20319;-67
2021/03/17 03:00:57;;;;;;;5.47;2.13;;;1.40;91.80;;;;;;5001649;28;20037;-67
2021/03/17 03:03:26;;;;;;;7.50;2.22;;;1.40;91.80;;;;;;4998278;28;20018;-67
2021/03/17 03:05:55;;;;;;;4.18;1.75;;;1.40;91.80;;;;;;5003368;28;20112;-68
2021/03/17 03:08:26;;;;;;;6.43;2.15;;;1.40;91.80;;;;;;4999102;28;20038;-67
2021/03/17 03:10:54;;;;;;;6.95;2.10;;;1.20;91.80;;;;;;4998238;28;20076;-68
2021/03/17 03:13:23;;;;;;;5.57;2.05;;;1.20;92.00;;;;;;4999168;28;20018;-69
2021/03/17 03:15:52;;;;;;;9.25;2.10;;;1.10;92.10;;;;;;5000875;28;20030;-67
2021/03/17 03:18:19;;;;;;;11.65;2.30;;;1.10;92.30;;;;;;4995673;28;20029;-68
2021/03/17 03:20:44;;;;;;;15.40;2.63;;;1.10;92.30;;;;;;5004784;28;20030;-69
2021/03/17 03:23:10;;;;;;;11.30;2.75;;;1.10;92.30;;;;;;5001037;28;20409;-68
2021/03/17 03:25:36;;;;;;;7.93;2.10;;;1.20;92.40;;;;;;4996591;28;20032;-68
2021/03/17 03:28:11;;;;;;;7.10;1.83;;;1.10;92.30;;;;;;4994615;28;20030;-68
2021/03/17 03:30:41;;;;;;;12.57;2.47;;;1.10;92.20;;;;;;4998691;28;20061;-67
2021/03/17 03:33:07;;;;;;;9.37;2.13;;;1.20;92.10;;;;;;5001794;28;20125;-68
2021/03/17 03:35:33;;;;;;;7.82;1.95;;;1.20;92.20;;;;;;5005580;28;20319;-67
2021/03/17 03:37:59;;;;;;;7.40;2.20;;;1.30;92.10;;;;;;5006957;28;20057;-68
2021/03/17 03:40:25;;;;;;;9.00;2.30;;;1.30;92.00;;;;;;5004489;28;20065;-67
2021/03/17 03:42:50;;;;;;;7.85;1.98;;;1.30;92.00;;;;;;4999344;28;20034;-68
2021/03/17 03:45:19;;;;;;;10.40;2.45;;;1.30;92.00;;;;;;5004442;28;20485;-69
2021/03/17 03:47:46;;;;;;;7.93;2.00;;;1.30;92.10;;;;;;5003983;28;20033;-68
2021/03/17 03:50:15;;;;;;;10.68;2.28;;;1.30;92.00;;;;;;5003594;28;20036;-67
2021/03/17 03:52:49;;;;;;;5.00;1.80;;;1.30;92.10;;;;;;5003093;28;20028;-69
2021/03/17 03:55:43;;;;;;;11.98;2.40;;;1.30;92.10;;;;;;5004230;28;20125;-68
2021/03/17 03:58:13;;;;;;;6.05;2.10;;;1.30;92.20;;;;;;4998006;28;20115;-69
2021/03/17 04:00:41;;;;;;;6.35;2.08;;;1.30;92.10;;;;;;5002810;28;20029;-67
2021/03/17 04:03:08;;;;;;;13.18;2.53;;;1.30;92.20;;;;;;5003923;28;20037;-68
2021/03/17 04:05:38;;;;;;;7.65;2.13;;;1.30;92.10;;;;;;5005346;28;20091;-67
2021/03/17 04:08:17;;;;;;;8.93;2.00;;;1.40;92.00;;;;;;5001019;28;20033;-67
2021/03/17 04:10:44;;;;;;;8.73;2.17;;;1.40;92.00;;;;;;5000297;28;20076;-68
2021/03/17 04:13:12;;;;;;;15.18;2.50;;;1.30;92.00;;;;;;5000956;28;20029;-69
2021/03/17 04:15:39;;;;;;;12.30;1.90;;;1.30;92.00;;;;;;5000306;28;20034;-68
2021/03/17 04:18:14;;;;;;;4.88;2.05;;;1.30;92.00;;;;;;5003490;28;20022;-68
2021/03/17 04:20:43;;;;;;;12.02;2.10;;;1.30;92.00;;;;;;5001204;28;20277;-66
2021/03/17 04:23:11;;;;;;;8.77;1.55;;;1.20;92.00;;;;;;5001430;28;20033;-69
2021/03/17 04:25:40;;;;;;;12.07;2.10;;;1.20;92.10;;;;;;5006294;28;20198;-68
2021/03/17 04:28:08;;;;;;;5.78;1.90;;;1.20;92.10;;;;;;5006203;28;20018;-68
2021/03/17 04:30:34;;;;;;;6.05;1.77;;;1.20;92.00;;;;;;5001799;28;20452;-69
2021/03/17 04:33:01;;;;;;;7.72;2.47;;;1.20;92.00;;;;;;5001707;28;20040;-67
2021/03/17 04:35:27;;;;;;;9.95;2.40;;;1.20;92.00;;;;;;5003008;28;20023;-67
2021/03/17 04:37:55;;;;;;;9.18;1.90;;;1.10;91.90;;;;;;5006638;28;20107;-69
2021/03/17 04:40:21;;;;;;;7.82;2.25;;;1.10;91.90;;;;;;4999988;28;20031;-68
2021/03/17 04:42:48;;;;;;;10.85;2.13;;;1.00;91.90;;;;;;4998245;28;20037;-68
2021/03/17 04:45:15;;;;;;;14.93;2.63;;;0.90;92.20;;;;;;5003669;28;20398;-70
2021/03/17 04:47:45;;;;;;;8.68;2.08;;;0.90;92.30;;;;;;5005607;28;20474;-68
2021/03/17 04:50:15;;;;;;;5.85;2.30;;;0.80;92.30;;;;;;5002054;28;20132;-69
2021/03/17 04:52:43;;;;;;;7.03;1.83;;;0.70;92.30;;;;;;5000922;28;20104;-67
2021/03/17 04:55:10;;;;;;;10.48;1.90;;;0.50;92.50;;;;;;5002773;28;20025;-67
2021/03/17 04:57:39;;;;;;;9.38;2.38;;;0.40;92.60;;;;;;5003634;28;20261;-68
2021/03/17 05:00:16;;;;;;;8.13;2.22;;;0.30;92.70;;;;;;5002524;28;20049;-67
2021/03/17 05:02:49;;;;;;;9.65;2.10;;;0.20;93.00;;;;;;5004821;28;20065;-69
2021/03/17 05:05:15;;;;;;;13.07;2.10;;;0.20;93.30;;;;;;5008378;28;20034;-66
2021/03/17 05:07:42;;;;;;;10.10;2.28;;;0.10;93.30;;;;;;5003641;28;20171;-67
2021/03/17 05:10:09;;;;;;;12.25;2.60;;;0.00;93.10;;;;;;4993362;28;20032;-70
2021/03/17 05:12:38;;;;;;;11.18;2.80;;;0.00;93.30;;;;;;4982337;28;20414;-68
2021/03/17 05:15:05;;;;;;;13.95;2.15;;;-3276.70;93.30;;;;;;5003646;28;20026;-68
2021/03/17 05:17:34;;;;;;;10.15;2.88;;;-3276.60;93.50;;;;;;5002786;28;20017;-70
2021/03/17 05:19:59;;;;;;;12.15;2.22;;;-3276.60;93.60;;;;;;4999443;28;20044;-68
2021/03/17 05:22:26;;;;;;;10.90;2.28;;;-3276.70;94.00;;;;;;5006630;28;20026;-68
2021/03/17 05:24:52;;;;;;;10.80;2.40;;;-3276.70;93.90;;;;;;5005759;28;20045;-67
2021/03/17 05:27:25;;;;;;;17.17;2.55;;;-3276.70;93.90;;;;;;5002539;28;20029;-67
2021/03/17 05:29:53;;;;;;;11.38;2.40;;;-3276.70;93.90;;;;;;5004969;28;20177;-67
2021/03/17 05:32:19;;;;;;;8.85;2.80;;;-3276.70;93.90;;;;;;5006097;28;20018;-67
2021/03/17 05:34:54;;;;;;;9.02;2.35;;;0.00;94.00;;;;;;5005740;28;20423;-67
2021/03/17 05:37:21;;;;;;;12.52;2.53;;;0.00;93.80;;;;;;5004476;28;20470;-68
2021/03/17 05:39:46;;;;;;;11.75;3.13;;;0.00;93.70;;;;;;5004655;28;20041;-69
2021/03/17 05:42:13;;;;;;;13.07;3.28;;;0.00;93.70;;;;;;5007437;28;20092;-68
2021/03/17 05:44:39;;;;;;;12.13;2.90;;;0.00;93.50;;;;;;4998209;28;20087;-66
2021/03/17 05:47:05;;;;;;;11.07;2.85;;;0.00;93.60;;;;;;5006499;28;20029;-67
2021/03/17 05:49:31;;;;;;;9.95;3.05;;;0.00;93.60;;;;;;5000952;28;20030;-67
2021/03/17 05:51:57;;;;;;;13.43;3.60;;;0.00;93.60;;;;;;5006878;28;20548;-67
2021/03/17 05:54:23;;;;;;;7.22;2.33;;;0.00;93.70;;;;;;5004224;28;20091;-67
2021/03/17 05:56:51;;;;;;;8.35;2.42;;;0.00;93.80;;;;;;5003258;28;20037;-69
2021/03/17 05:59:18;;;;;;;6.43;2.70;;;0.00;93.60;;;;;;5002088;28;20109;-67
2021/03/17 06:01:43;;;;;;;8.88;2.63;;;0.00;93.60;;;;;;5003156;28;20034;-67
2021/03/17 06:04:09;;;;;;;8.63;2.72;;;0.00;93.60;;;;;;5007495;28;20026;-67
2021/03/17 06:06:39;;;;;;;11.65;2.65;;;0.10;93.60;;;;;;4997539;28;20533;-68
2021/03/17 06:09:08;;;;;;;12.98;3.20;;;0.10;93.60;;;;;;4999225;28;20033;-68
2021/03/17 06:11:36;;;;;;;10.75;2.53;;;0.10;93.60;;;;;;5004155;28;20022;-67
2021/03/17 06:14:07;;;;;;;12.20;3.05;;;0.20;93.60;;;;;;5002480;28;20036;-68
2021/03/17 06:16:33;;;;;;;13.05;2.90;;;0.30;93.60;;;;;;4996736;28;20033;-68
2021/03/17 06:19:03;;;;;;;9.00;2.65;;;0.40;93.60;;;;;;5001741;28;20458;-69
2021/03/17 06:21:29;;;;;;;10.18;2.80;;;0.50;93.50;;;;;;5007715;28;20040;-67
2021/03/17 06:23:56;;;;;;;10.32;2.80;;;0.50;93.30;;;;;;5006668;28;20484;-68
2021/03/17 06:26:23;;;;;;;11.30;2.95;;;0.60;93.20;;;;;;5006859;28;20075;-68
2021/03/17 06:28:49;;;;;;;6.78;2.60;;;0.60;93.20;;;;;;5005499;28;20033;-66
2021/03/17 06:31:16;;;;;;;7.20;2.80;;;0.50;93.10;;;;;;5006501;28;20025;-67
2021/03/17 06:33:41;;;;;;;10.63;3.10;;;0.50;93.00;;;;;;5007049;28;20034;-67
2021/03/17 06:36:21;;;;;;;6.93;2.47;;;0.60;93.00;;;;;;5005454;28;20025;-68
2021/03/17 06:38:47;;;;;;;12.48;2.67;;;0.70;93.10;;;;;;5003175;28;20220;-69
2021/03/17 06:41:15;;;;;;;12.07;3.20;;;0.80;93.10;;;;;;5006254;28;20022;-69
2021/03/17 06:43:45;;;;;;;8.43;2.63;;;0.80;93.20;;;;;;5004764;28;20545;-68
2021/03/17 06:46:17;;;;;;;9.43;2.40;;;0.80;93.10;;;;;;5001991;28;20040;-68
2021/03/17 06:48:44;;;;;;;6.60;2.15;;;0.90;92.60;;;;;;5001943;28;20029;-68
2021/03/17 06:51:20;;;;;;;14.48;2.67;;;1.00;92.40;;;;;;5002655;28;20026;-69
2021/03/17 06:53:53;;;;;;;9.75;2.28;;;1.20;91.20;;;;;;4994434;28;20041;-68
2021/03/17 06:56:28;;;;;;;9.80;2.30;;;1.30;90.30;;;;;;5006857;28;20093;-67
2021/03/17 06:58:54;;;;;;;9.27;2.10;;;1.50;88.50;;;;;;4992818;28;20502;-67
2021/03/17 07:01:26;;;;;;;9.30;1.75;;;1.70;87.40;;;;;;5006610;28;20034;-68
2021/03/17 07:04:00;;;;;;;8.63;1.90;;;1.80;86.70;;;;;;4999576;28;21788;-68
2021/03/17 07:06:27;;;;;;;11.15;1.67;;;1.90;85.70;;;;;;5009303;28;20026;-68
2021/03/17 07:08:53;;;;;;;9.77;1.60;;;2.10;87.00;;;;;;4997560;28;20084;-68
2021/03/17 07:11:24;;;;;;;6.78;1.73;;;2.10;85.90;;;;;;4999618;28;20026;-68
2021/03/17 07:14:04;;;;;;;8.15;1.95;;;2.30;86.50;;;;;;5004175;28;20029;-68
2021/03/17 07:16:44;;;;;;;4.45;1.77;;;2.30;84.70;;;;;;5002720;28;20446;-68
2021/03/17 07:19:09;;;;;;;8.60;1.58;;;2.40;84.10;;;;;;5002687;28;20022;-69
2021/03/17 07:21:40;;;;;;;10.60;1.60;;;2.50;85.00;;;;;;5006180;28;20060;-68
2021/03/17 07:24:08;;;;;;;7.60;1.77;;;2.60;83.60;;;;;;5007719;28;20041;-68
2021/03/17 07:26:38;;;;;;;4.63;1.27;;;2.60;83.60;;;;;;5008151;28;20034;-68
2021/03/17 07:29:12;;;;;;;5.03;1.53;;;2.70;83.50;;;;;;4998187;28;20033;-69
2021/03/17 07:31:43;;;;;;;5.15;1.48;;;2.70;83.30;;;;;;5002078;28;20491;-68
2021/03/17 07:34:18;;;;;;;7.22;1.73;;;2.80;83.20;;;;;;5005131;28;20033;-68
2021/03/17 07:37:06;;;;;;;8.85;2.00;;;2.90;83.00;;;;;;5009906;28;20333;-67
2021/03/17 07:39:37;;;;;;;7.38;1.88;;;3.00;83.00;;;;;;4999014;28;20053;-68
2021/03/17 07:42:07;;;;;;;6.00;1.85;;;3.10;82.90;;;;;;5007476;28;20056;-67
2021/03/17 07:44:36;;;;;;;7.40;1.50;;;3.30;82.60;;;;;;5007801;28;20042;-69
2021/03/17 07:47:07;;;;;;;4.43;1.73;;;3.40;81.30;;;;;;5007297;28;20025;-67
2021/03/17 07:49:35;;;;;;;8.05;1.67;;;3.50;80.90;;;;;;5007860;28;20075;-68
2021/03/17 07:52:02;;;;;;;6.38;1.58;;;3.80;80.60;;;;;;5007123;28;20034;-70
2021/03/17 07:54:29;;;;;;;8.82;3.30;;;3.80;80.30;;;;;;4999947;28;20040;-68
2021/03/17 07:56:59;;;;;;;10.80;3.30;;;3.90;80.90;;;;;;5007934;28;20036;-68
2021/03/17 07:59:25;;;;;;;12.48;3.25;;;4.00;80.90;;;;;;5006293;28;20021;-68
2021/03/17 08:01:53;;;;;;;8.05;3.20;;;4.20;80.60;;;;;;5005277;28;20167;-68
2021/03/17 08:04:24;;;;;;;9.52;3.67;;;3.90;80.10;;;;;;5008265;28;20026;-68
2021/03/17 08:06:50;;;;;;;8.23;3.33;;;3.90;80.70;;;;;;5008092;28;20156;-68
2021/03/17 08:09:16;;;;;;;10.00;3.67;;;3.90;81.10;;;;;;5009228;28;20842;-70
2021/03/17 08:11:42;;;;;;;11.45;3.65;;;4.20;81.80;;;;;;5008121;28;20045;-68
2021/03/17 08:14:12;;;;;;;8.07;3.17;;;4.60;81.30;;;;;;5004179;28;20034;-69
2021/03/17 08:16:38;;;;;;;9.88;2.88;;;4.60;79.40;;;;;;5001734;28;20125;-68
2021/03/17 08:19:24;;;;;;;8.35;3.28;;;4.40;79.20;;;;;;5005967;28;20529;-67
2021/03/17 08:22:00;;;;;;;8.68;3.10;;;4.20;79.60;;;;;;5002868;28;20030;-67
2021/03/17 08:24:40;;;;;;;11.45;2.88;;;3.90;80.40;;;;;;5005798;28;20462;-68
2021/03/17 08:27:06;;;;;;;10.02;3.53;;;3.90;80.90;;;;;;5006686;28;20060;-68
2021/03/17 08:29:42;;;;;;;10.30;3.30;;;4.20;79.90;;;;;;5003812;28;20034;-68
2021/03/17 08:32:10;;;;;;;8.90;3.08;;;4.50;79.20;;;;;;5004778;28;20029;-67
2021/03/17 08:34:37;;;;;;;8.88;3.42;;;4.80;79.30;;;;;;5002879;28;20118;-68
2021/03/17 08:37:08;;;;;;;8.20;3.65;;;5.00;79.20;;;;;;5005578;28;20413;-68
2021/03/17 08:39:37;;;;;;;10.98;3.17;;;5.20;78.80;;;;;;5006648;28;20030;-69
2021/03/17 08:42:42;;;;;;;9.38;3.22;;;5.50;76.10;;;;;;5008209;28;20029;-68
2021/03/17 08:45:19;;;;;;;7.10;3.30;;;5.70;76.60;;;;;;4963342;28;20386;-69
2021/03/17 08:47:46;;;;;;;9.82;3.10;;;5.80;74.40;;;;;;4961905;28;20546;-67
2021/03/17 08:50:19;;;;;;;8.70;3.35;;;5.80;75.70;;;;;;4988867;28;20054;-67
2021/03/17 08:52:48;;;;;;;6.57;2.70;;;5.70;75.10;;;;;;5002168;28;20105;-68
2021/03/17 08:55:33;;;;;;;7.53;2.83;;;6.00;77.30;;;;;;5002256;28;20032;-68
2021/03/17 08:58:05;;;;;;;8.90;3.40;;;5.70;75.00;;;;;;5007087;28;20021;-69
2021/03/17 09:00:44;;;;;;;6.53;3.15;;;5.80;75.40;;;;;;5009849;28;20184;-69
2021/03/17 09:03:30;;;;;;;6.03;2.90;;;5.60;74.70;;;;;;5005284;28;20022;-68
2021/03/17 09:06:23;;;;;;;7.35;3.25;;;6.00;76.00;;;;;;4985112;28;20044;-68
2021/03/17 09:09:02;;;;;;;10.07;2.95;;;6.10;75.70;;;;;;5007034;28;20029;-69
2021/03/17 09:11:31;;;;;;;9.40;3.40;;;5.80;75.20;;;;;;5004806;28;20037;-69
2021/03/17 09:14:05;;;;;;;5.65;2.65;;;5.80;75.40;;;;;;5005862;28;20028;-68
2021/03/17 09:16:36;;;;;;;7.30;2.97;;;5.60;75.50;;;;;;4990022;28;20552;-68
2021/03/17 09:19:11;;;;;;;8.65;2.83;;;5.70;76.50;;;;;;5007132;28;20034;-68
2021/03/17 09:21:39;;;;;;;7.18;2.83;;;5.70;75.30;;;;;;5007124;28;20541;-68
2021/03/17 09:24:28;;;;;;;10.32;2.63;;;5.80;75.30;;;;;;5002355;28;20172;-67
2021/03/17 09:27:01;;;;;;;5.28;2.58;;;6.00;74.40;;;;;;5005549;28;20022;-70
2021/03/17 09:29:26;;;;;;;7.32;2.80;;;5.90;74.30;;;;;;5003174;28;20418;-68
2021/03/17 09:31:56;;;;;;;9.50;3.10;;;5.90;74.90;;;;;;5007723;28;20042;-68
2021/03/17 09:34:33;;;;;;;8.55;2.72;;;6.10;73.80;;;;;;5006345;28;20088;-68
2021/03/17 09:37:05;;;;;;;7.78;2.97;;;6.10;73.70;;;;;;5005888;28;20022;-68
2021/03/17 09:39:31;;;;;;;5.90;2.92;;;6.10;74.30;;;;;;5006824;28;20116;-69
2021/03/17 09:41:57;;;;;;;8.75;2.95;;;6.20;72.90;;;;;;5006456;28;20038;-68
2021/03/17 09:44:23;;;;;;;7.15;2.60;;;6.00;73.60;;;;;;5006419;28;20036;-68
2021/03/17 09:46:52;;;;;;;9.35;3.10;;;5.90;73.10;;;;;;4998953;28;20041;-68
2021/03/17 09:49:20;;;;;;;11.07;2.53;;;6.20;74.10;;;;;;4983475;28;20026;-68
2021/03/17 09:51:53;;;;;;;7.60;2.83;;;6.30;73.70;;;;;;5006887;28;20022;-68
2021/03/17 09:54:25;;;;;;;10.35;2.92;;;6.50;73.60;;;;;;5004358;28;20057;-68
2021/03/17 09:56:58;;;;;;;10.30;2.65;;;6.50;73.20;;;;;;4988312;28;20040;-69
2021/03/17 09:59:31;;;;;;;8.63;2.80;;;6.50;73.20;;;;;;5002276;28;20034;-68
2021/03/17 10:02:05;;;;;;;7.57;2.90;;;6.50;72.90;;;;;;5006059;28;20037;-69
2021/03/17 10:04:43;;;;;;;5.38;2.15;;;6.50;72.20;;;;;;5007002;28;20565;-68
2021/03/17 10:07:11;;;;;;;7.47;2.55;;;6.50;72.50;;;;;;5006848;28;20041;-69
2021/03/17 10:09:37;;;;;;;8.82;2.33;;;6.60;72.20;;;;;;4988495;28;20048;-69
2021/03/17 10:12:23;;;;;;;7.05;2.30;;;6.30;73.10;;;;;;5006788;28;20026;-67
2021/03/17 10:14:54;;;;;;;5.68;2.28;;;6.50;74.30;;;;;;4998954;28;20042;-69
2021/03/17 10:17:22;;;;;;;8.23;2.38;;;6.50;72.20;;;;;;5004924;28;20116;-68
2021/03/17 10:19:57;;;;;;;6.93;2.17;;;6.60;73.10;;;;;;5006232;28;20040;-68
2021/03/17 10:22:25;;;;;;;7.82;2.47;;;6.70;73.30;;;;;;5004842;28;20076;-69
2021/03/17 10:24:52;;;;;;;6.95;2.40;;;7.00;71.30;;;;;;5000591;28;20398;-68
2021/03/17 10:27:20;;;;;;;9.73;2.03;;;7.10;72.00;;;;;;5001815;28;20136;-70
2021/03/17 10:29:49;;;;;;;8.20;2.10;;;7.30;69.50;;;;;;5002252;28;20027;-68
2021/03/17 10:32:18;;;;;;;9.25;2.38;;;7.60;70.80;;;;;;4993591;28;20505;-69
2021/03/17 10:34:44;;;;;;;5.45;2.08;;;7.80;68.90;;;;;;5002927;28;20510;-69
2021/03/17 10:37:15;;;;;;;8.85;2.15;;;7.80;69.40;;;;;;5007595;28;20030;-68
2021/03/17 10:39:42;;;;;;;3.65;1.73;;;7.90;68.00;;;;;;4997112;28;20060;-69
2021/03/17 10:42:25;;;;;;;8.98;2.50;;;8.40;69.10;;;;;;5001446;28;20410;-68
2021/03/17 10:45:10;;;;;;;8.48;2.17;;;8.30;67.80;;;;;;5002921;28;20034;-68
2021/03/17 10:47:38;;;;;;;6.78;2.30;;;8.50;67.90;;;;;;5001416;28;20022;-67
2021/03/17 10:50:09;;;;;;;9.75;2.38;;;7.80;70.00;;;;;;5001518;28;20258;-68
2021/03/17 10:52:47;;;;;;;6.72;2.80;;;7.80;70.90;;;;;;5001529;28;20490;-70
2021/03/17 10:55:19;;;;;;;11.23;2.80;;;8.00;71.30;;;;;;4995868;28;20034;-67
2021/03/17 10:57:46;;;;;;;9.43;2.88;;;8.10;71.20;;;;;;5003135;28;20045;-67
2021/03/17 11:00:22;;;;;;;7.13;2.95;;;7.70;71.10;;;;;;5003871;28;20034;-68
2021/03/17 11:02:49;;;;;;;9.40;2.88;;;7.70;72.30;;;;;;5004738;28;20096;-67
2021/03/17 11:05:25;;;;;;;12.43;2.92;;;8.10;70.30;;;;;;5000888;28;20037;-67
2021/03/17 11:07:54;;;;;;;9.88;2.85;;;8.10;70.60;;;;;;4993477;28;20026;-66
2021/03/17 11:10:32;;;;;;;6.63;3.10;;;8.00;71.40;;;;;;5002009;28;20030;-67
2021/03/17 11:12:59;;;;;;;11.40;3.38;;;8.10;70.30;;;;;;5004591;28;20076;-67
2021/03/17 11:15:30;;;;;;;9.60;3.47;;;7.80;70.60;;;;;;4999476;28;20054;-68
2021/03/17 11:17:58;;;;;;;6.28;3.38;;;7.80;70.60;;;;;;5004506;28;20044;-66
2021/03/17 11:20:25;;;;;;;9.27;3.72;;;8.10;71.40;;;;;;5003701;28;20049;-67
2021/03/17 11:22:50;;;;;;;7.65;3.10;;;8.60;69.80;;;;;;5003568;28;20368;-67
2021/03/17 11:25:25;;;;;;;10.32;3.28;;;8.50;68.80;;;;;;4994936;28;20093;-66
2021/03/17 11:27:53;;;;;;;7.72;3.00;;;8.80;67.90;;;;;;5001262;28;20049;-67
2021/03/17 11:30:20;;;;;;;6.95;3.05;;;9.00;66.70;;;;;;5003567;28;20043;-66
2021/03/17 11:32:46;;;;;;;5.10;2.70;;;8.80;66.70;;;;;;5004271;28;20486;-67
2021/03/17 11:35:12;;;;;;;6.53;3.20;;;9.00;64.30;;;;;;4999085;28;20299;-66
2021/03/17 11:37:39;;;;;;;7.03;3.20;;;8.90;66.40;;;;;;4990469;28;20129;-67
2021/03/17 11:40:06;;;;;;;8.63;2.60;;;9.00;65.40;;;;;;4999868;28;20072;-68
2021/03/17 11:42:32;;;;;;;9.85;3.15;;;8.60;65.70;;;;;;5001189;28;20044;-67
2021/03/17 11:44:58;;;;;;;8.32;3.55;;;9.20;65.40;;;;;;5003030;28;20026;-67
2021/03/17 11:47:23;;;;;;;9.98;3.03;;;9.60;66.00;;;;;;5006180;28;20390;-67
2021/03/17 11:49:49;;;;;;;6.15;2.65;;;9.70;64.50;;;;;;5000861;28;20022;-67
2021/03/17 11:52:14;;;;;;;7.18;2.50;;;9.90;63.70;;;;;;5005979;28;20033;-68
2021/03/17 11:54:40;;;;;;;8.55;3.60;;;9.90;60.70;;;;;;4998484;28;20695;-67
2021/03/17 11:57:06;;;;;;;9.13;3.45;;;10.10;60.80;;;;;;5003635;28;20022;-67
2021/03/17 11:59:32;;;;;;;6.28;2.58;;;9.40;63.80;;;;;;5002757;28;20045;-69
2021/03/17 12:01:57;;;;;;;5.60;2.22;;;10.00;61.80;;;;;;5003130;28;20030;-67
2021/03/17 12:04:23;;;;;;;4.00;1.85;;;9.80;61.80;;;;;;5001430;28;20030;-67
2021/03/17 12:06:49;;;;;;;8.80;1.90;;;9.60;63.10;;;;;;5007163;28;20113;-68
2021/03/17 12:09:15;;;;;;;6.28;2.03;;;10.10;60.30;;;;;;5008357;28;20026;-68
2021/03/17 12:11:42;;;;;;;7.47;2.15;;;9.70;62.70;;;;;;5004118;28;20034;-67
2021/03/17 12:14:09;;;;;;;8.27;1.85;;;8.60;63.50;;;;;;5000034;28;20022;-68
2021/03/17 12:16:35;;;;;;;5.30;1.40;;;8.40;66.20;;;;;;5007117;28;20030;-66
2021/03/17 12:19:00;;;;;;;6.18;1.88;;;8.60;61.70;;;;;;5004153;28;20140;-67
2021/03/17 12:21:26;;;;;;;9.68;1.58;;;9.30;62.40;;;;;;5000891;28;20033;-67
2021/03/17 12:23:52;;;;;;;6.45;1.85;;;9.80;59.70;;;;;;5004220;28;20034;-68
2021/03/17 12:26:17;;;;;;;5.22;1.80;;;10.20;58.60;;;;;;5003758;28;20371;-67
2021/03/17 12:28:43;;;;;;;2.95;1.33;;;9.70;58.70;;;;;;5006785;28;20084;-67
2021/03/17 12:31:09;;;;;;;5.25;1.90;;;9.90;57.60;;;;;;5005157;28;20032;-67
2021/03/17 12:33:35;;;;;;;6.70;2.10;;;10.70;58.80;;;;;;5005789;28;20022;-68
2021/03/17 12:36:02;;;;;;;6.45;1.58;;;11.80;55.60;;;;;;5006414;28;20132;-68
2021/03/17 12:38:28;;;;;;;5.68;1.80;;;11.00;54.90;;;;;;4995803;28;20026;-68
2021/03/17 12:40:54;;;;;;;6.40;1.85;;;10.20;59.00;;;;;;5008806;28;20052;-67
2021/03/17 12:43:20;;;;;;;7.63;1.80;;;10.00;59.50;;;;;;5010404;28;20030;-68
2021/03/17 12:45:46;;;;;;;6.97;1.50;;;9.80;59.90;;;;;;5003272;28;20419;-67
2021/03/17 12:48:13;;;;;;;8.10;2.42;;;9.00;59.90;;;;;;5007899;28;20045;-68
2021/03/17 12:50:40;;;;;;;5.68;2.30;;;8.70;64.00;;;;;;5007716;28;20057;-67
2021/03/17 12:53:06;;;;;;;5.93;2.25;;;9.80;60.30;;;;;;5009917;28;20443;-68
2021/03/17 12:55:32;;;;;;;6.50;1.90;;;10.40;59.40;;;;;;5000519;28;20061;-67
2021/03/17 12:57:58;;;;;;;7.15;2.13;;;11.50;57.30;;;;;;5006909;28;20037;-67
2021/03/17 13:00:25;;;;;;;6.80;2.03;;;12.20;55.40;;;;;;5007493;28;20044;-68
2021/03/17 13:02:51;;;;;;;7.28;1.88;;;11.30;57.30;;;;;;4987533;28;20029;-68
2021/03/17 13:05:18;;;;;;;5.82;2.13;;;10.20;58.10;;;;;;5002995;28;20403;-68